createdAt,value
2018-07-20T00:01:46.343Z,94.90
2018-07-20T00:04:15.183Z,95.20
2018-07-20T00:06:43.637Z,95.20
2018-07-20T00:09:12.148Z,95.50
2018-07-20T00:11:40.617Z,95.60
2018-07-20T00:14:09.094Z,95.80
2018-07-20T00:16:37.619Z,96.00
2018-07-20T00:19:06.031Z,96.20
2018-07-20T00:21:34.571Z,96.30
2018-07-20T00:24:03.061Z,96.50
2018-07-20T00:26:31.511Z,96.70
2018-07-20T00:28:59.963Z,97.00
2018-07-20T00:31:28.463Z,97.10
2018-07-20T00:33:57.951Z,97.40
2018-07-20T00:36:26.489Z,97.50
2018-07-20T00:38:54.935Z,97.60
2018-07-20T00:41:23.395Z,97.80
2018-07-20T00:43:51.907Z,98.00
2018-07-20T00:46:20.383Z,98.10
2018-07-20T00:48:48.797Z,98.20
2018-07-20T00:51:17.247Z,98.30
2018-07-20T00:53:45.807Z,98.80
2018-07-20T00:56:14.295Z,98.60
2018-07-20T00:58:42.821Z,98.80
2018-07-20T01:01:11.270Z,99.00
2018-07-20T01:03:39.753Z,99.10
2018-07-20T01:06:08.392Z,99.30
2018-07-20T01:11:05.261Z,99.60
2018-07-20T01:16:01.898Z,99.90
2018-07-20T01:20:58.527Z,99.90
2018-07-20T01:23:26.999Z,99.90
2018-07-20T01:25:55.454Z,99.90
2018-07-20T01:28:23.968Z,99.90
2018-07-20T01:30:52.442Z,99.90
2018-07-20T01:33:20.917Z,99.90
2018-07-20T01:35:49.404Z,99.90
2018-07-20T01:38:17.896Z,99.90
2018-07-20T01:40:46.376Z,99.90
2018-07-20T01:43:14.860Z,99.90
2018-07-20T01:45:43.345Z,99.90
2018-07-20T01:48:11.812Z,99.90
2018-07-20T01:50:41.315Z,99.90
2018-07-20T01:53:11.984Z,99.90
2018-07-20T01:55:40.427Z,99.90
2018-07-20T01:58:09.949Z,99.90
2018-07-20T02:00:38.416Z,99.90
2018-07-20T02:03:08.263Z,99.90
2018-07-20T02:05:36.734Z,99.90
2018-07-20T02:08:05.306Z,99.90
2018-07-20T02:10:33.788Z,99.90
2018-07-20T02:13:02.241Z,99.90
2018-07-20T02:15:30.755Z,99.90
2018-07-20T02:17:59.231Z,99.90
2018-07-20T02:20:27.702Z,99.90
2018-07-20T02:22:57.196Z,99.90
2018-07-20T02:25:25.724Z,99.90
2018-07-20T02:27:54.168Z,99.90
2018-07-20T02:30:22.668Z,99.90
2018-07-20T02:32:51.160Z,99.90
2018-07-20T02:35:19.628Z,99.90
2018-07-20T02:37:48.111Z,99.90
2018-07-20T02:40:16.500Z,99.90
2018-07-20T02:42:44.965Z,99.90
2018-07-20T02:45:13.441Z,99.90
2018-07-20T02:47:41.937Z,99.90
2018-07-20T02:50:10.340Z,99.90
2018-07-20T02:52:39.708Z,99.90
2018-07-20T02:55:09.105Z,99.90
2018-07-20T02:57:37.611Z,99.90
2018-07-20T03:00:06.107Z,99.90
2018-07-20T03:02:34.556Z,99.90
2018-07-20T03:05:03.125Z,99.90
2018-07-20T03:07:31.843Z,99.90
2018-07-20T03:10:00.323Z,99.90
2018-07-20T03:12:28.816Z,99.90
2018-07-20T03:14:57.309Z,99.90
2018-07-20T03:17:25.743Z,99.90
2018-07-20T03:19:54.312Z,99.90
2018-07-20T03:22:22.857Z,99.90
2018-07-20T03:24:51.317Z,99.90
2018-07-20T03:27:19.792Z,99.90
2018-07-20T03:30:51.966Z,99.90
2018-07-20T03:33:20.461Z,99.90
2018-07-20T03:35:48.916Z,99.90
2018-07-20T03:38:17.411Z,99.90
2018-07-20T03:40:45.883Z,99.90
2018-07-20T03:43:15.427Z,99.90
2018-07-20T03:45:43.879Z,99.90
2018-07-20T03:48:12.355Z,99.90
2018-07-20T03:50:40.857Z,99.90
2018-07-20T03:53:09.331Z,99.90
2018-07-20T03:55:37.835Z,99.90
2018-07-20T03:58:06.304Z,99.90
2018-07-20T04:00:34.800Z,99.90
2018-07-20T04:03:03.257Z,99.90
2018-07-20T04:05:31.739Z,99.90
2018-07-20T04:09:03.283Z,99.90
2018-07-20T04:11:31.783Z,99.90
2018-07-20T04:14:00.271Z,99.90
2018-07-20T04:16:28.736Z,99.90
2018-07-20T04:18:57.213Z,99.90
2018-07-20T04:21:25.715Z,99.90
2018-07-20T04:23:54.167Z,99.90
2018-07-20T04:26:22.659Z,99.90
2018-07-20T04:28:51.144Z,99.90
2018-07-20T04:31:19.840Z,99.90
2018-07-20T04:35:12.645Z,99.90
2018-07-20T04:37:41.079Z,99.90
2018-07-20T04:40:09.579Z,99.90
2018-07-20T04:42:38.139Z,99.90
2018-07-20T04:45:06.948Z,99.90
2018-07-20T04:47:35.437Z,99.90
2018-07-20T04:50:04.818Z,99.90
2018-07-20T04:52:33.303Z,99.90
2018-07-20T04:55:01.691Z,99.90
2018-07-20T04:57:30.171Z,99.90
2018-07-20T04:59:58.741Z,99.90
2018-07-20T05:02:27.292Z,99.90
2018-07-20T05:04:55.852Z,99.90
2018-07-20T05:09:52.515Z,99.90
2018-07-20T05:12:20.931Z,99.90
2018-07-20T05:14:49.443Z,99.90
2018-07-20T05:17:17.890Z,99.90
2018-07-20T05:19:46.395Z,99.90
2018-07-20T05:22:14.879Z,99.90
2018-07-20T05:24:43.395Z,99.90
2018-07-20T05:29:40.215Z,99.90
2018-07-20T05:32:08.806Z,99.90
2018-07-20T05:34:37.275Z,99.90
2018-07-20T05:37:05.846Z,99.90
2018-07-20T05:39:34.335Z,99.90
2018-07-20T05:42:02.868Z,99.90
2018-07-20T05:46:59.483Z,99.90
2018-07-20T05:49:27.964Z,99.90
2018-07-20T05:51:56.460Z,99.90
2018-07-20T05:54:24.994Z,99.90
2018-07-20T05:56:53.439Z,99.90
2018-07-20T05:59:21.947Z,99.90
2018-07-20T06:01:50.383Z,99.90
2018-07-20T06:04:18.856Z,99.90
2018-07-20T06:06:47.351Z,99.90
2018-07-20T06:09:15.804Z,99.90
2018-07-20T06:11:44.319Z,99.90
2018-07-20T06:14:12.843Z,99.90
2018-07-20T06:19:09.447Z,99.90
2018-07-20T06:21:37.962Z,99.90
2018-07-20T06:24:06.504Z,99.90
2018-07-20T06:26:34.979Z,99.90
2018-07-20T06:29:03.500Z,99.90
2018-07-20T06:31:31.960Z,99.90
2018-07-20T06:34:00.448Z,99.90
2018-07-20T06:36:28.948Z,99.90
2018-07-20T06:38:57.444Z,99.90
2018-07-20T06:43:54.086Z,99.90
2018-07-20T06:46:22.571Z,99.90
2018-07-20T06:48:51.008Z,99.90
2018-07-20T06:51:19.535Z,99.90
2018-07-20T06:53:47.979Z,99.90
2018-07-20T06:56:16.388Z,99.90
2018-07-20T06:58:44.832Z,99.90
2018-07-20T07:01:13.330Z,99.90
2018-07-20T07:03:41.817Z,99.90
2018-07-20T07:06:10.232Z,99.90
2018-07-20T07:11:07.090Z,99.90
2018-07-20T07:16:03.747Z,99.90
2018-07-20T07:21:00.348Z,99.90
2018-07-20T07:23:28.865Z,99.90
2018-07-20T07:25:57.308Z,99.90
2018-07-20T07:28:25.820Z,99.90
2018-07-20T07:30:54.318Z,99.90
2018-07-20T07:33:22.773Z,99.90
2018-07-20T07:35:51.390Z,99.90
2018-07-20T07:40:48.444Z,99.90
2018-07-20T07:43:17.029Z,99.90
2018-07-20T07:47:10.002Z,99.90
2018-07-20T07:49:38.448Z,99.90
2018-07-20T07:52:07.350Z,99.90
2018-07-20T07:54:35.831Z,99.90
2018-07-20T07:57:04.375Z,99.90
2018-07-20T07:59:32.882Z,99.90
2018-07-20T08:02:01.379Z,99.90
2018-07-20T08:04:30.075Z,99.90
2018-07-20T08:06:58.539Z,99.90
2018-07-20T08:09:27.026Z,99.90
2018-07-20T08:11:55.606Z,99.90
2018-07-20T08:14:24.102Z,99.90
2018-07-20T08:16:52.684Z,99.90
2018-07-20T08:19:21.167Z,99.90
2018-07-20T08:21:49.639Z,99.90
2018-07-20T08:24:18.058Z,99.90
2018-07-20T08:26:46.479Z,99.90
2018-07-20T08:29:14.990Z,99.90
2018-07-20T08:31:43.475Z,99.90
2018-07-20T08:34:11.951Z,99.90
2018-07-20T08:36:40.451Z,99.90
2018-07-20T08:39:09.922Z,99.90
2018-07-20T08:41:38.831Z,99.90
2018-07-20T08:44:07.336Z,99.90
2018-07-20T08:49:03.975Z,99.90
2018-07-20T08:51:32.499Z,99.60
2018-07-20T08:54:01.028Z,99.70
2018-07-20T08:56:29.423Z,99.20
2018-07-20T08:58:57.900Z,99.30
2018-07-20T09:02:50.880Z,98.70
2018-07-20T09:05:19.315Z,98.80
2018-07-20T09:07:47.804Z,98.30
2018-07-20T09:10:16.310Z,97.80
2018-07-20T09:12:44.817Z,97.80
2018-07-20T09:17:41.415Z,97.40
2018-07-20T09:20:10.100Z,97.20
2018-07-20T09:22:38.711Z,97.00
2018-07-20T09:25:07.495Z,96.80
2018-07-20T09:27:36.021Z,96.20
2018-07-20T09:30:04.528Z,96.30
2018-07-20T09:32:33.039Z,95.70
2018-07-20T09:35:01.508Z,95.90
2018-07-20T09:37:31.055Z,95.50
2018-07-20T09:39:59.503Z,95.40
2018-07-20T09:42:28.042Z,95.10
2018-07-20T09:44:56.586Z,95.00
2018-07-20T09:47:25.155Z,94.40
2018-07-20T09:49:53.634Z,94.40
2018-07-20T09:52:23.291Z,93.50
2018-07-20T09:57:20.033Z,92.70
2018-07-20T09:59:48.536Z,92.50
2018-07-20T10:02:16.946Z,92.10
2018-07-20T10:04:45.476Z,91.60
2018-07-20T10:07:13.931Z,91.80
2018-07-20T10:09:42.419Z,91.50
2018-07-20T10:12:10.899Z,91.10
2018-07-20T10:14:39.299Z,90.80
2018-07-20T10:17:07.767Z,90.80
2018-07-20T10:19:36.227Z,90.50
2018-07-20T10:22:05.155Z,89.00
2018-07-20T10:24:33.638Z,87.30
2018-07-20T10:27:02.095Z,87.80
2018-07-20T10:29:30.577Z,84.80
2018-07-20T10:31:59.063Z,85.30
2018-07-20T10:34:27.523Z,84.50
2018-07-20T10:36:56.028Z,83.60
2018-07-20T10:39:24.487Z,83.10
2018-07-20T10:41:53.056Z,81.90
2018-07-20T10:44:21.876Z,82.70
2018-07-20T10:46:50.391Z,83.60
2018-07-20T10:49:18.873Z,82.00
2018-07-20T10:51:47.332Z,82.00
2018-07-20T10:54:15.883Z,81.80
2018-07-20T10:56:44.432Z,81.10
2018-07-20T10:59:12.894Z,80.50
2018-07-20T11:01:41.490Z,80.60
2018-07-20T11:04:11.033Z,80.10
2018-07-20T11:06:39.567Z,79.60
2018-07-20T11:09:08.963Z,79.20
2018-07-20T11:11:37.660Z,79.50
2018-07-20T11:14:06.128Z,78.40
2018-07-20T11:16:34.817Z,76.70
2018-07-20T11:19:03.274Z,77.00
2018-07-20T11:21:31.740Z,77.30
2018-07-20T11:24:00.150Z,76.50
2018-07-20T11:26:28.615Z,76.50
2018-07-20T11:28:57.130Z,75.10
2018-07-20T11:31:25.693Z,75.70
2018-07-20T11:34:57.395Z,73.30
2018-07-20T11:37:25.845Z,71.40
2018-07-20T11:39:54.322Z,69.50
2018-07-20T11:42:22.895Z,69.50
2018-07-20T11:44:51.377Z,69.90
2018-07-20T11:47:19.875Z,68.20
2018-07-20T11:49:48.455Z,70.40
2018-07-20T11:52:16.935Z,70.70
2018-07-20T11:54:45.374Z,71.30
2018-07-20T11:57:13.815Z,69.30
2018-07-20T11:59:42.279Z,68.20
2018-07-20T12:02:10.772Z,68.60
2018-07-20T12:04:39.259Z,66.00
2018-07-20T12:07:07.736Z,65.60
2018-07-20T12:09:36.210Z,65.90
2018-07-20T12:12:04.719Z,65.70
2018-07-20T12:17:01.376Z,63.40
2018-07-20T12:21:57.981Z,63.10
2018-07-20T12:24:26.486Z,63.10
2018-07-20T12:26:54.967Z,63.00
2018-07-20T12:29:23.431Z,63.20
2018-07-20T12:31:52.873Z,61.70
2018-07-20T12:34:21.339Z,62.20
2018-07-20T12:36:49.739Z,63.80
2018-07-20T12:41:46.343Z,61.40
2018-07-20T12:44:14.834Z,60.00
2018-07-20T12:46:43.419Z,59.30
2018-07-20T12:49:11.863Z,59.20
2018-07-20T12:51:40.300Z,59.60
2018-07-20T12:54:08.805Z,59.30
2018-07-20T12:56:37.272Z,58.80
2018-07-20T12:59:06.240Z,58.30
2018-07-20T13:01:34.740Z,58.60
2018-07-20T13:04:03.249Z,58.50
2018-07-20T13:06:31.815Z,60.60
2018-07-20T13:09:00.288Z,58.50
2018-07-20T13:11:28.737Z,58.00
2018-07-20T13:13:57.545Z,58.20
2018-07-20T13:16:26.073Z,58.10
2018-07-20T13:21:22.730Z,59.30
2018-07-20T13:26:19.483Z,58.00
